createdAt,value
2023-02-20T00:02:06.421Z,5.66
2023-02-20T00:04:38.925Z,5.65
2023-02-20T00:07:11.747Z,5.67
2023-02-20T00:09:38.184Z,5.71
2023-02-20T00:12:04.939Z,5.73
2023-02-20T00:14:31.761Z,5.73
2023-02-20T00:16:58.322Z,5.73
2023-02-20T00:19:38.021Z,5.74
2023-02-20T00:22:04.474Z,5.72
2023-02-20T00:24:31.210Z,5.72
2023-02-20T00:27:36.761Z,5.73
2023-02-20T00:30:05.137Z,5.74
2023-02-20T00:32:32.619Z,5.76
2023-02-20T00:35:05.258Z,5.74
2023-02-20T00:37:39.148Z,5.73
2023-02-20T00:40:06.961Z,5.74
2023-02-20T00:42:36.446Z,5.77
2023-02-20T00:45:05.003Z,5.80
2023-02-20T00:47:49.564Z,5.76
2023-02-20T00:50:30.060Z,5.74
2023-02-20T00:53:04.695Z,5.71
2023-02-20T00:55:31.109Z,5.74
2023-02-20T00:58:06.737Z,5.74
2023-02-20T01:00:41.154Z,5.74
2023-02-20T01:03:13.208Z,5.74
2023-02-20T01:05:46.934Z,5.74
2023-02-20T01:08:19.587Z,5.73
2023-02-20T01:10:46.145Z,5.76
2023-02-20T01:13:12.627Z,5.75
2023-02-20T01:15:39.140Z,5.77
2023-02-20T01:18:13.036Z,5.78
2023-02-20T01:20:39.497Z,5.77
2023-02-20T01:23:05.869Z,5.73
2023-02-20T01:26:27.236Z,5.70
2023-02-20T01:28:55.683Z,5.67
2023-02-20T01:32:00.573Z,5.68
2023-02-20T01:34:27.164Z,5.65
2023-02-20T01:36:56.927Z,5.65
2023-02-20T01:39:27.421Z,5.66
2023-02-20T01:42:17.935Z,5.64
2023-02-20T01:44:50.379Z,5.65
2023-02-20T01:47:20.050Z,5.67
2023-02-20T01:49:55.018Z,5.66
2023-02-20T01:52:26.940Z,5.66
2023-02-20T01:55:24.002Z,5.64
2023-02-20T01:57:55.140Z,5.63
2023-02-20T02:00:24.436Z,5.63
2023-02-20T02:03:04.702Z,5.63
2023-02-20T02:05:34.125Z,5.66
2023-02-20T02:08:18.841Z,5.68
2023-02-20T02:11:14.496Z,5.69
2023-02-20T02:13:51.973Z,5.74
2023-02-20T02:16:40.245Z,5.73
2023-02-20T02:19:31.602Z,5.76
2023-02-20T02:22:45.856Z,5.79
2023-02-20T02:25:53.972Z,5.83
2023-02-20T02:28:43.224Z,5.86
2023-02-20T02:31:48.940Z,5.91
2023-02-20T02:35:01.215Z,5.93
2023-02-20T02:38:16.569Z,5.94
2023-02-20T02:41:07.925Z,5.96
2023-02-20T02:43:51.022Z,5.98
2023-02-20T02:47:18.551Z,6.01
2023-02-20T02:50:26.030Z,6.03
2023-02-20T02:52:54.141Z,6.02
2023-02-20T02:55:26.499Z,6.07
2023-02-20T02:58:03.025Z,6.10
2023-02-20T03:00:47.416Z,6.12
2023-02-20T03:03:28.373Z,6.14
2023-02-20T03:06:06.287Z,6.18
2023-02-20T03:08:57.864Z,6.22
2023-02-20T03:11:30.603Z,6.23
2023-02-20T03:14:40.388Z,6.27
2023-02-20T03:17:31.907Z,6.30
2023-02-20T03:20:02.861Z,6.34
2023-02-20T03:22:33.799Z,6.34
2023-02-20T03:25:06.362Z,6.35
2023-02-20T03:27:44.204Z,6.37
2023-02-20T03:30:27.616Z,6.39
2023-02-20T03:33:21.572Z,6.39
2023-02-20T03:36:08.627Z,6.43
2023-02-20T03:38:57.173Z,6.46
2023-02-20T03:41:46.293Z,6.48
2023-02-20T03:44:17.887Z,6.50
2023-02-20T03:46:48.763Z,6.52
2023-02-20T03:49:54.681Z,6.53
2023-02-20T03:52:53.203Z,6.56
2023-02-20T03:55:49.241Z,6.56
2023-02-20T03:58:22.727Z,6.57
2023-02-20T04:01:03.319Z,6.58
2023-02-20T04:04:25.048Z,6.59
2023-02-20T04:06:53.191Z,6.61
2023-02-20T04:09:24.316Z,6.63
2023-02-20T04:11:56.648Z,6.64
2023-02-20T04:14:26.028Z,6.62
2023-02-20T04:16:58.456Z,6.65
2023-02-20T04:19:24.965Z,6.66
2023-02-20T04:22:09.564Z,6.68
2023-02-20T04:24:48.483Z,6.71
2023-02-20T04:27:15.496Z,6.73
2023-02-20T04:29:42.015Z,6.73
2023-02-20T04:32:08.446Z,6.74
2023-02-20T04:34:35.184Z,6.74
2023-02-20T04:37:19.665Z,6.75
2023-02-20T04:39:47.456Z,6.78
2023-02-20T04:42:15.138Z,6.78
2023-02-20T04:44:42.898Z,6.79
2023-02-20T04:47:18.345Z,6.80
2023-02-20T04:49:44.944Z,6.82
2023-02-20T04:52:11.515Z,6.82
2023-02-20T04:54:39.933Z,6.83
2023-02-20T04:57:20.717Z,6.83
2023-02-20T04:59:53.236Z,6.85
2023-02-20T05:02:19.662Z,6.86
2023-02-20T05:04:49.255Z,6.86
2023-02-20T05:07:18.001Z,6.88
2023-02-20T05:09:44.582Z,6.88
2023-02-20T05:12:10.937Z,6.88
2023-02-20T05:14:43.371Z,6.88
2023-02-20T05:17:09.783Z,6.88
2023-02-20T05:19:36.388Z,6.90
2023-02-20T05:22:21.361Z,6.91
2023-02-20T05:25:17.874Z,6.94
2023-02-20T05:27:44.271Z,6.93
2023-02-20T05:30:27.109Z,6.93
2023-02-20T05:32:53.516Z,6.95
2023-02-20T05:35:19.892Z,6.95
2023-02-20T05:37:46.388Z,6.97
2023-02-20T05:40:12.875Z,6.99
2023-02-20T05:42:48.057Z,7.01
2023-02-20T05:45:20.325Z,7.01
2023-02-20T05:48:11.390Z,7.02
2023-02-20T05:50:37.761Z,7.02
2023-02-20T05:53:11.260Z,7.01
2023-02-20T05:55:37.726Z,7.05
2023-02-20T05:58:05.173Z,7.06
2023-02-20T06:00:31.583Z,7.07
2023-02-20T06:02:58.094Z,7.08
2023-02-20T06:05:26.541Z,7.10
2023-02-20T06:07:59.131Z,7.09
2023-02-20T06:10:25.581Z,7.12
2023-02-20T06:13:00.725Z,7.14
2023-02-20T06:16:04.338Z,7.15
2023-02-20T06:18:32.925Z,7.15
2023-02-20T06:21:00.391Z,7.15
2023-02-20T06:23:26.792Z,7.17
2023-02-20T06:25:57.325Z,7.17
2023-02-20T06:28:23.766Z,7.19
2023-02-20T06:30:50.946Z,7.20
2023-02-20T06:33:30.720Z,7.20
2023-02-20T06:35:59.831Z,7.22
2023-02-20T06:38:26.524Z,7.21
2023-02-20T06:40:53.025Z,7.23
2023-02-20T06:43:19.487Z,7.24
2023-02-20T06:45:46.522Z,7.23
2023-02-20T06:48:14.545Z,7.23
2023-02-20T06:50:41.905Z,7.24
2023-02-20T06:53:08.914Z,7.24
2023-02-20T06:55:38.635Z,7.26
2023-02-20T06:58:18.331Z,7.25
2023-02-20T07:00:44.827Z,7.27
2023-02-20T07:03:21.482Z,7.27
2023-02-20T07:05:48.049Z,7.29
2023-02-20T07:08:14.502Z,7.30
2023-02-20T07:10:40.940Z,7.29
2023-02-20T07:13:07.354Z,7.30
2023-02-20T07:15:33.881Z,7.30
2023-02-20T07:18:00.286Z,7.30
2023-02-20T07:20:26.834Z,7.32
2023-02-20T07:22:55.444Z,7.33
2023-02-20T07:25:21.866Z,7.32
2023-02-20T07:27:51.327Z,7.34
2023-02-20T07:30:31.982Z,7.35
2023-02-20T07:32:58.425Z,7.37
2023-02-20T07:35:24.859Z,7.39
2023-02-20T07:37:51.408Z,7.40
2023-02-20T07:40:19.940Z,7.41
2023-02-20T07:42:46.470Z,7.43
2023-02-20T07:45:12.920Z,7.43
2023-02-20T07:47:40.505Z,7.43
2023-02-20T07:50:07.396Z,7.45
2023-02-20T07:52:33.866Z,7.46
2023-02-20T07:55:00.318Z,7.47
2023-02-20T07:57:26.855Z,7.48
2023-02-20T07:59:53.212Z,7.50
2023-02-20T08:02:19.635Z,7.51
2023-02-20T08:04:46.072Z,7.55
2023-02-20T08:07:12.511Z,7.54
2023-02-20T08:09:38.970Z,7.56
2023-02-20T08:12:05.476Z,7.59
2023-02-20T08:14:39.862Z,7.59
2023-02-20T08:17:20.285Z,7.62
2023-02-20T08:20:06.440Z,7.64
2023-02-20T08:22:41.460Z,7.66
2023-02-20T08:25:08.306Z,7.68
2023-02-20T08:27:38.434Z,7.71
2023-02-20T08:30:06.801Z,7.72
2023-02-20T08:32:33.315Z,7.75
2023-02-20T08:34:59.772Z,7.76
2023-02-20T08:37:26.141Z,7.76
2023-02-20T08:39:52.542Z,7.80
2023-02-20T08:42:26.162Z,7.82
2023-02-20T08:44:52.604Z,7.83
2023-02-20T08:47:20.935Z,7.86
2023-02-20T08:49:48.680Z,7.87
2023-02-20T08:52:16.476Z,7.91
2023-02-20T08:55:00.155Z,7.93
2023-02-20T08:57:27.802Z,7.93
2023-02-20T08:59:54.242Z,7.96
2023-02-20T09:02:24.458Z,7.96
2023-02-20T09:04:52.026Z,7.95
2023-02-20T09:07:21.087Z,7.98
2023-02-20T09:09:47.726Z,7.98
2023-02-20T09:12:14.384Z,7.97
2023-02-20T09:14:40.769Z,7.97
2023-02-20T09:17:07.256Z,7.98
2023-02-20T09:19:33.817Z,7.98
2023-02-20T09:22:27.375Z,7.98
2023-02-20T09:25:05.150Z,7.98
2023-02-20T09:27:31.649Z,8.00
2023-02-20T09:29:58.058Z,7.98
2023-02-20T09:32:24.507Z,7.98
2023-02-20T09:35:01.201Z,7.98
2023-02-20T09:37:27.639Z,7.97
2023-02-20T09:40:25.341Z,7.96
2023-02-20T09:43:15.542Z,7.98
2023-02-20T09:49:43.996Z,8.03
2023-02-20T09:52:16.227Z,8.04
2023-02-20T09:55:00.809Z,8.07
2023-02-20T09:57:29.672Z,8.08
2023-02-20T10:00:07.199Z,8.11
2023-02-20T10:02:42.352Z,8.11
2023-02-20T10:05:36.662Z,8.12
2023-02-20T10:08:03.124Z,8.15
2023-02-20T10:10:41.569Z,8.16
2023-02-20T10:13:30.220Z,8.17
2023-02-20T10:16:08.809Z,8.18
2023-02-20T10:18:54.487Z,8.20
2023-02-20T10:21:55.387Z,8.22
2023-02-20T10:24:56.087Z,8.24
2023-02-20T10:27:56.583Z,8.26
2023-02-20T10:30:31.836Z,8.25
2023-02-20T10:33:17.500Z,8.29
2023-02-20T10:36:07.185Z,8.26
2023-02-20T10:38:45.192Z,8.28
2023-02-20T10:41:24.926Z,8.30
2023-02-20T10:44:01.384Z,8.32
2023-02-20T10:47:04.545Z,8.32
2023-02-20T10:49:57.015Z,8.30
2023-02-20T10:52:34.052Z,8.34
2023-02-20T10:55:40.813Z,8.37
2023-02-20T10:58:33.629Z,8.38
2023-02-20T11:01:06.862Z,8.39
2023-02-20T11:03:55.738Z,8.37
2023-02-20T11:06:29.542Z,8.38
2023-02-20T11:08:55.945Z,8.39
2023-02-20T11:11:28.426Z,8.39
2023-02-20T11:13:54.932Z,8.38
2023-02-20T11:16:26.072Z,8.39
2023-02-20T11:19:03.397Z,8.38
2023-02-20T11:21:36.218Z,8.38
2023-02-20T11:24:36.875Z,8.41
2023-02-20T11:27:08.893Z,8.45
2023-02-20T11:29:41.001Z,8.42
2023-02-20T11:32:27.355Z,8.41
2023-02-20T11:35:04.553Z,8.41
2023-02-20T11:37:35.960Z,8.42
2023-02-20T11:40:02.886Z,8.42
2023-02-20T11:42:34.665Z,8.42
2023-02-20T11:45:28.796Z,8.43
2023-02-20T11:48:19.167Z,8.44
2023-02-20T11:50:49.080Z,8.44
2023-02-20T11:53:32.120Z,8.46
2023-02-20T11:56:19.582Z,8.48
2023-02-20T11:58:46.911Z,8.49
2023-02-20T12:01:35.182Z,8.50
2023-02-20T12:04:02.092Z,8.50
2023-02-20T12:06:36.200Z,8.48
2023-02-20T12:09:32.626Z,8.49
2023-02-20T12:11:59.036Z,8.51
2023-02-20T12:14:26.241Z,8.51
2023-02-20T12:17:02.193Z,8.49
2023-02-20T12:20:04.196Z,8.52
2023-02-20T12:22:34.823Z,8.54
2023-02-20T12:25:18.582Z,8.55
2023-02-20T12:28:04.657Z,8.57
2023-02-20T12:31:19.441Z,8.57
2023-02-20T12:34:05.998Z,8.59
2023-02-20T12:36:40.457Z,8.61
2023-02-20T12:39:14.490Z,8.62
2023-02-20T12:42:15.887Z,8.64
2023-02-20T12:45:03.028Z,8.66
2023-02-20T12:47:31.313Z,8.64
2023-02-20T12:50:18.053Z,8.66
2023-02-20T12:53:12.332Z,8.66
2023-02-20T12:56:03.738Z,8.69
2023-02-20T12:58:48.926Z,8.73
2023-02-20T13:01:27.731Z,8.73
2023-02-20T13:04:07.159Z,8.76
2023-02-20T13:06:47.670Z,8.78
2023-02-20T13:09:23.271Z,8.80
2023-02-20T13:11:56.527Z,8.80
2023-02-20T13:14:36.112Z,8.86
2023-02-20T13:17:35.953Z,8.88
2023-02-20T13:20:33.354Z,8.88
2023-02-20T13:23:04.124Z,8.88
2023-02-20T13:25:33.546Z,8.89
2023-02-20T13:28:22.386Z,8.86
2023-02-20T13:31:15.840Z,8.88
2023-02-20T13:33:45.311Z,8.89
2023-02-20T13:36:23.792Z,8.90
2023-02-20T13:39:21.590Z,8.90
2023-02-20T13:41:54.136Z,8.88
2023-02-20T13:44:29.781Z,8.88
2023-02-20T13:47:02.466Z,8.91
2023-02-20T13:49:58.173Z,8.93
2023-02-20T13:52:44.757Z,8.94
2023-02-20T13:55:11.094Z,8.94
2023-02-20T13:57:55.944Z,8.92
2023-02-20T14:00:41.271Z,8.89
2023-02-20T14:03:24.005Z,8.88
2023-02-20T14:06:08.126Z,8.89
2023-02-20T14:08:36.414Z,8.89
2023-02-20T14:11:09.812Z,8.89
2023-02-20T14:13:40.953Z,8.89
2023-02-20T14:16:42.100Z,8.89
2023-02-20T14:19:17.609Z,8.90
2023-02-20T14:21:44.027Z,8.88
2023-02-20T14:24:28.692Z,8.86
2023-02-20T14:26:56.898Z,8.85
2023-02-20T14:29:26.463Z,8.85
2023-02-20T14:31:55.110Z,8.84
2023-02-20T14:34:21.478Z,8.80
2023-02-20T14:37:12.072Z,8.78
2023-02-20T14:39:57.331Z,8.77
2023-02-20T14:42:25.357Z,8.78
2023-02-20T14:45:04.725Z,8.75
2023-02-20T14:47:32.205Z,8.75
2023-02-20T14:50:30.168Z,8.74
2023-02-20T14:53:16.840Z,8.73
2023-02-20T14:55:43.583Z,8.74
2023-02-20T14:58:19.126Z,8.73
2023-02-20T15:00:46.212Z,8.75
2023-02-20T15:03:30.676Z,8.74
2023-02-20T15:06:03.887Z,8.73
2023-02-20T15:08:35.542Z,8.70
2023-02-20T15:11:12.085Z,8.68
2023-02-20T15:13:42.050Z,8.66
2023-02-20T15:16:11.960Z,8.66
2023-02-20T15:18:41.933Z,8.68
2023-02-20T15:21:10.174Z,8.67
2023-02-20T15:23:39.650Z,8.66
2023-02-20T15:26:28.245Z,8.68
2023-02-20T15:29:19.146Z,8.68
2023-02-20T15:31:53.817Z,8.66
2023-02-20T15:34:34.858Z,8.67
2023-02-20T15:37:02.095Z,8.67
2023-02-20T15:39:28.562Z,8.66
2023-02-20T15:44:22.188Z,8.64
2023-02-20T15:46:48.599Z,8.63
2023-02-20T15:49:20.572Z,8.64
2023-02-20T15:51:48.020Z,8.63
2023-02-20T15:54:17.578Z,8.62
2023-02-20T15:56:44.361Z,8.63
2023-02-20T15:59:14.826Z,8.63
2023-02-20T16:01:41.337Z,8.61
2023-02-20T16:04:09.026Z,8.61
2023-02-20T16:06:36.085Z,8.61
2023-02-20T16:09:03.519Z,8.59
2023-02-20T16:11:41.403Z,8.57
2023-02-20T16:14:09.367Z,8.59
2023-02-20T16:16:42.339Z,8.59
2023-02-20T16:19:13.919Z,8.59
2023-02-20T16:21:42.913Z,8.59
2023-02-20T16:24:15.202Z,8.60
2023-02-20T16:26:46.383Z,8.58
2023-02-20T16:29:22.240Z,8.59
2023-02-20T16:31:54.840Z,8.57
2023-02-20T16:34:23.617Z,8.57
2023-02-20T16:36:51.293Z,8.57
2023-02-20T16:39:26.188Z,8.56
2023-02-20T16:41:54.197Z,8.54
2023-02-20T16:44:34.292Z,8.54
2023-02-20T16:47:00.961Z,8.54
2023-02-20T16:49:27.568Z,8.52
2023-02-20T16:52:01.272Z,8.53
2023-02-20T16:54:29.032Z,8.53
2023-02-20T16:56:55.780Z,8.51
2023-02-20T16:59:22.618Z,8.51
2023-02-20T17:01:51.541Z,8.49
2023-02-20T17:04:19.728Z,8.51
2023-02-20T17:06:47.312Z,8.48
2023-02-20T17:09:13.909Z,8.48
2023-02-20T17:11:40.461Z,8.48
2023-02-20T17:14:06.954Z,8.48
2023-02-20T17:16:33.461Z,8.47
2023-02-20T17:18:59.960Z,8.46
2023-02-20T17:21:26.350Z,8.48
2023-02-20T17:23:52.922Z,8.47
2023-02-20T17:26:22.329Z,8.46
2023-02-20T17:28:49.095Z,8.46
2023-02-20T17:31:15.845Z,8.46
2023-02-20T17:33:42.454Z,8.43
2023-02-20T17:36:09.207Z,8.41
2023-02-20T17:38:35.762Z,8.40
2023-02-20T17:41:02.267Z,8.39
2023-02-20T17:43:53.554Z,8.37
2023-02-20T17:46:20.700Z,8.36
2023-02-20T17:48:50.320Z,8.39
2023-02-20T17:51:23.998Z,8.35
2023-02-20T17:53:50.493Z,8.35
2023-02-20T17:56:23.743Z,8.33
2023-02-20T17:58:50.222Z,8.32
2023-02-20T18:01:17.910Z,8.34
2023-02-20T18:03:44.430Z,8.33
2023-02-20T18:06:11.287Z,8.30
2023-02-20T18:08:37.975Z,8.27
2023-02-20T18:11:15.055Z,8.26
2023-02-20T18:13:41.407Z,8.22
2023-02-20T18:16:08.305Z,8.22
2023-02-20T18:18:38.820Z,8.20
2023-02-20T18:21:29.873Z,8.20
2023-02-20T18:24:10.322Z,8.21
2023-02-20T18:26:46.599Z,8.20
2023-02-20T18:29:13.080Z,8.20
2023-02-20T18:31:43.857Z,8.20
2023-02-20T18:34:10.364Z,8.20
2023-02-20T18:36:37.835Z,8.18
2023-02-20T18:39:05.572Z,8.17
2023-02-20T18:41:32.055Z,8.18
2023-02-20T18:43:58.430Z,8.18
2023-02-20T18:46:29.214Z,8.19
2023-02-20T18:48:55.965Z,8.18
2023-02-20T18:51:27.142Z,8.19
2023-02-20T18:53:53.734Z,8.16
2023-02-20T18:56:20.122Z,8.16
2023-02-20T18:58:46.541Z,8.14
2023-02-20T19:01:19.690Z,8.15
2023-02-20T19:03:47.814Z,8.14
2023-02-20T19:06:36.947Z,8.14
2023-02-20T19:09:04.407Z,8.16
2023-02-20T19:11:30.890Z,8.13
2023-02-20T19:13:57.400Z,8.13
2023-02-20T19:16:24.317Z,8.13
2023-02-20T19:18:51.314Z,8.14
2023-02-20T19:21:18.924Z,8.16
2023-02-20T19:23:45.977Z,8.15
2023-02-20T19:26:13.424Z,8.15
2023-02-20T19:28:42.155Z,8.15
2023-02-20T19:31:10.269Z,8.11
2023-02-20T19:33:36.808Z,8.12
2023-02-20T19:36:03.685Z,8.14
2023-02-20T19:38:30.052Z,8.13
2023-02-20T19:40:56.629Z,8.17
2023-02-20T19:43:23.163Z,8.17
2023-02-20T19:45:49.609Z,8.13
2023-02-20T19:48:16.093Z,8.13
2023-02-20T19:50:42.563Z,8.10
2023-02-20T19:53:09.002Z,8.10
2023-02-20T19:55:35.457Z,8.11
2023-02-20T19:58:02.700Z,8.11
2023-02-20T20:00:29.738Z,8.11
2023-02-20T20:02:58.179Z,8.12
2023-02-20T20:05:25.138Z,8.12
2023-02-20T20:07:51.592Z,8.12
2023-02-20T20:10:19.977Z,8.13
2023-02-20T20:12:46.565Z,8.11
2023-02-20T20:15:20.028Z,8.09
2023-02-20T20:17:47.957Z,8.11
2023-02-20T20:20:15.876Z,8.13
2023-02-20T20:22:42.622Z,8.11
2023-02-20T20:25:10.704Z,8.09
2023-02-20T20:27:37.598Z,8.11
2023-02-20T20:30:06.195Z,8.10
2023-02-20T20:32:33.278Z,8.10
2023-02-20T20:35:00.319Z,8.12
2023-02-20T20:37:27.714Z,8.14
2023-02-20T20:39:56.462Z,8.14
2023-02-20T20:42:26.131Z,8.13
2023-02-20T20:44:54.201Z,8.15
2023-02-20T20:47:21.398Z,8.16
2023-02-20T20:49:47.963Z,8.15
2023-02-20T20:52:15.089Z,8.17
2023-02-20T20:54:41.575Z,8.16
2023-02-20T20:57:08.059Z,8.15
2023-02-20T20:59:36.796Z,8.16
2023-02-20T21:02:04.110Z,8.17
2023-02-20T21:04:30.471Z,8.18
2023-02-20T21:06:56.877Z,8.16
2023-02-20T21:09:23.240Z,8.16
2023-02-20T21:11:49.692Z,8.18
2023-02-20T21:14:16.300Z,8.18
2023-02-20T21:16:42.701Z,8.18
2023-02-20T21:19:10.182Z,8.18
2023-02-20T21:21:36.600Z,8.18
2023-02-20T21:24:03.138Z,8.19
2023-02-20T21:26:29.530Z,8.19
2023-02-20T21:28:55.939Z,8.20
2023-02-20T21:31:22.426Z,8.22
2023-02-20T21:33:54.010Z,8.22
2023-02-20T21:36:21.526Z,8.22
2023-02-20T21:38:47.912Z,8.20
2023-02-20T21:41:39.257Z,8.21
2023-02-20T21:44:24.753Z,8.22
2023-02-20T21:46:53.065Z,8.23
2023-02-20T21:49:19.857Z,8.23
2023-02-20T21:51:46.975Z,8.24
2023-02-20T21:54:15.683Z,8.25
2023-02-20T21:56:42.406Z,8.25
2023-02-20T21:59:08.790Z,8.25
2023-02-20T22:01:36.991Z,8.28
2023-02-20T22:04:04.992Z,8.28
2023-02-20T22:06:31.837Z,8.27
2023-02-20T22:09:16.836Z,8.27
2023-02-20T22:12:01.888Z,8.30
2023-02-20T22:14:46.642Z,8.28
2023-02-20T22:17:33.666Z,8.26
2023-02-20T22:20:18.755Z,8.27
2023-02-20T22:23:22.320Z,8.30
2023-02-20T22:26:19.310Z,8.29
2023-02-20T22:29:04.041Z,8.27
2023-02-20T22:31:50.388Z,8.28
2023-02-20T22:34:44.526Z,8.27
2023-02-20T22:37:29.390Z,8.26
2023-02-20T22:40:14.098Z,8.27
2023-02-20T22:43:06.874Z,8.28
2023-02-20T22:45:51.761Z,8.29
2023-02-20T22:48:36.675Z,8.27
2023-02-20T22:51:22.331Z,8.28
2023-02-20T22:54:07.022Z,8.26
2023-02-20T22:56:52.986Z,8.25
2023-02-20T22:59:39.133Z,8.27
2023-02-20T23:02:24.132Z,8.27
2023-02-20T23:05:08.998Z,8.26
2023-02-20T23:07:54.271Z,8.27
2023-02-20T23:10:39.029Z,8.26
2023-02-20T23:13:35.134Z,8.27
2023-02-20T23:16:29.091Z,8.26
2023-02-20T23:19:13.999Z,8.25
2023-02-20T23:22:03.862Z,8.25
2023-02-20T23:24:48.890Z,8.27
2023-02-20T23:27:33.678Z,8.26
2023-02-20T23:30:18.704Z,8.26
2023-02-20T23:33:03.480Z,8.25
2023-02-20T23:35:48.245Z,8.25
2023-02-20T23:38:33.085Z,8.24
2023-02-20T23:41:27.191Z,8.25
2023-02-20T23:44:12.037Z,8.23
2023-02-20T23:47:03.512Z,8.22
2023-02-20T23:49:48.855Z,8.21
2023-02-20T23:52:35.709Z,8.23
2023-02-20T23:55:20.311Z,8.22
2023-02-20T23:58:05.222Z,8.25
